Time;durP1;ratioP1;P1;durP2;ratioP2;P2;SDS_P1;SDS_P2;PMS_P1;PMS_P2;Temp;Humidity;BMP_temperature;BMP_pressure;BME280_temperature;BME280_humidity;BME280_pressure;Samples;Min_cycle;Max_cycle;Signal;HPM_P1;HPM_P2
2023/12/16 00:00:06;;;;;;;9.32;2.63;;;;;;;15.59;47.99;103696.38;5072900;28;20025;-60
2023/12/16 00:02:32;;;;;;;9.43;2.63;;;;;;;15.58;47.81;103693.75;5071837;28;20029;-60
2023/12/16 00:04:57;;;;;;;11.13;3.15;;;;;;;15.60;47.21;103694.56;5072803;28;20036;-60
2023/12/16 00:07:23;;;;;;;9.32;3.33;;;;;;;15.57;47.59;103695.59;5072739;28;20025;-60
2023/12/16 00:09:48;;;;;;;12.52;4.03;;;;;;;15.57;48.08;103692.91;5072753;28;20546;-60
2023/12/16 00:12:13;;;;;;;9.57;2.78;;;;;;;15.56;46.66;103693.84;5072768;28;20107;-60
2023/12/16 00:14:39;;;;;;;10.73;3.40;;;;;;;15.57;47.85;103706.41;5072735;28;20067;-60
2023/12/16 00:17:04;;;;;;;12.77;3.40;;;;;;;15.55;46.97;103699.38;5071390;28;20064;-60
2023/12/16 00:19:30;;;;;;;8.50;3.30;;;;;;;15.55;47.15;103708.31;5072391;28;20029;-60
2023/12/16 00:21:56;;;;;;;11.98;3.05;;;;;;;15.55;46.96;103710.16;5071492;28;20115;-60
2023/12/16 00:24:23;;;;;;;5.63;2.75;;;;;;;15.54;46.88;103712.00;5071126;28;20111;-60
2023/12/16 00:26:48;;;;;;;11.40;3.13;;;;;;;15.50;46.76;103713.13;5072733;28;20021;-60
2023/12/16 00:29:14;;;;;;;18.80;5.45;;;;;;;15.52;46.47;103723.84;5071501;28;20520;-60
2023/12/16 00:31:39;;;;;;;12.15;2.75;;;;;;;15.51;47.19;103727.50;5054495;28;20060;-60
2023/12/16 00:34:05;;;;;;;6.60;3.30;;;;;;;15.48;47.99;103728.56;5072498;28;20043;-60
2023/12/16 00:36:30;;;;;;;10.45;3.05;;;;;;;15.44;47.39;103721.53;5054530;28;20033;-62
2023/12/16 00:38:56;;;;;;;5.75;2.42;;;;;;;15.45;47.63;103728.69;5071241;28;20037;-60
2023/12/16 00:41:21;;;;;;;7.95;2.72;;;;;;;15.43;47.93;103725.22;5072519;28;20125;-60
2023/12/16 00:43:46;;;;;;;11.25;2.85;;;;;;;15.43;46.85;103711.72;5072104;28;20025;-60
2023/12/16 00:46:12;;;;;;;11.50;2.38;;;;;;;15.42;47.47;103704.56;5054527;28;20029;-60
2023/12/16 00:48:37;;;;;;;8.40;2.28;;;;;;;15.42;46.81;103709.09;5070893;28;20033;-59
2023/12/16 00:51:03;;;;;;;11.68;2.53;;;;;;;15.43;47.42;103711.72;5054366;28;20035;-60
2023/12/16 00:53:28;;;;;;;19.30;3.20;;;;;;;15.42;46.98;103707.28;5071557;28;20573;-59
2023/12/16 00:55:53;;;;;;;6.95;2.70;;;;;;;15.43;47.24;103717.13;5072315;28;20405;-60
2023/12/16 00:58:19;;;;;;;9.90;2.47;;;;;;;15.42;47.40;103701.88;5072263;28;20043;-60
2023/12/16 01:00:44;;;;;;;4.97;2.05;;;;;;;15.39;46.40;103707.44;5071144;28;20527;-60
2023/12/16 01:03:09;;;;;;;8.90;2.22;;;;;;;15.36;47.04;103696.81;5072258;28;20047;-60
2023/12/16 01:05:37;;;;;;;5.95;2.20;;;;;;;15.36;47.02;103707.63;5070901;28;20111;-60
2023/12/16 01:08:03;;;;;;;6.30;1.55;;;;;;;15.35;46.90;103700.50;5071020;28;20033;-60
2023/12/16 01:10:29;;;;;;;8.23;2.33;;;;;;;15.36;46.41;103696.81;5070917;28;20115;-60
2023/12/16 01:12:55;;;;;;;3.55;2.40;;;;;;;15.40;47.64;103692.13;5072279;28;20116;-60
2023/12/16 01:15:21;;;;;;;6.90;2.22;;;;;;;15.38;46.40;103689.47;5071118;28;20113;-60
2023/12/16 01:17:46;;;;;;;7.18;2.00;;;;;;;15.40;46.43;103698.41;5072014;28;20087;-60
2023/12/16 01:20:11;;;;;;;6.25;1.80;;;;;;;15.41;46.32;103694.72;5072918;28;20033;-60
2023/12/16 01:22:37;;;;;;;8.85;1.98;;;;;;;15.42;45.92;103712.69;5075695;28;20551;-60
2023/12/16 01:25:05;;;;;;;10.27;2.80;;;;;;;15.40;46.81;103697.53;5075560;28;20029;-60
2023/12/16 01:27:30;;;;;;;4.30;1.92;;;;;;;15.43;47.02;103698.22;5074854;28;20064;-60
2023/12/16 01:29:56;;;;;;;10.30;2.20;;;;;;;15.44;46.40;103709.88;5075892;28;20112;-60
2023/12/16 01:32:21;;;;;;;13.02;2.35;;;;;;;15.46;46.02;103713.38;5056534;28;20492;-59
2023/12/16 01:34:46;;;;;;;5.50;2.15;;;;;;;15.45;45.63;103711.63;5067235;28;20039;-59
2023/12/16 01:37:12;;;;;;;8.63;2.60;;;;;;;15.46;47.16;103722.38;5074290;28;20032;-60
2023/12/16 01:39:37;;;;;;;6.53;1.80;;;;;;;15.47;46.01;103713.31;5075084;28;20510;-59
2023/12/16 01:42:03;;;;;;;7.15;1.88;;;;;;;15.47;46.54;103725.94;5074254;28;20029;-60
2023/12/16 01:44:29;;;;;;;5.63;1.75;;;;;;;15.38;46.76;103700.28;5074148;28;20094;-60
2023/12/16 01:46:54;;;;;;;9.30;2.08;;;;;;;15.43;46.14;103719.84;5074098;28;20492;-60
2023/12/16 01:49:20;;;;;;;6.03;2.03;;;;;;;15.44;45.86;103715.28;5073909;28;20496;-59
2023/12/16 01:51:46;;;;;;;10.52;2.38;;;;;;;15.42;45.57;103701.88;5073934;28;20042;-59
2023/12/16 01:54:12;;;;;;;3.83;1.60;;;;;;;15.41;46.42;103700.13;5073938;28;20403;-60
2023/12/16 01:56:37;;;;;;;12.23;1.65;;;;;;;15.38;46.06;103705.69;5056669;28;20044;-59
2023/12/16 01:59:04;;;;;;;6.55;2.35;;;;;;;15.37;46.94;103713.91;5073763;28;20024;-60
2023/12/16 02:01:29;;;;;;;9.38;1.77;;;;;;;15.33;46.43;103707.81;5073699;28;20037;-60
2023/12/16 02:03:56;;;;;;;11.05;2.15;;;;;;;15.35;46.80;103718.53;5056946;28;20145;-60
2023/12/16 02:06:21;;;;;;;16.77;2.65;;;;;;;15.37;46.54;103711.19;5075307;28;20032;-59
2023/12/16 02:08:47;;;;;;;6.20;2.80;;;;;;;15.34;45.89;103701.44;5075328;28;20032;-60
2023/12/16 02:11:12;;;;;;;11.20;2.58;;;;;;;15.36;46.44;103699.53;5075193;28;20107;-59
2023/12/16 02:13:39;;;;;;;5.70;1.70;;;;;;;15.36;46.29;103696.81;5072424;28;20039;-59
2023/12/16 02:16:05;;;;;;;7.05;2.15;;;;;;;15.37;46.29;103697.69;5056532;28;20033;-60
2023/12/16 02:18:30;;;;;;;11.70;1.92;;;;;;;15.36;45.07;103702.22;5074672;28;20068;-60
2023/12/16 02:20:56;;;;;;;5.03;2.55;;;;;;;15.37;46.24;103695.00;5074627;28;20453;-60
2023/12/16 02:23:22;;;;;;;8.90;2.55;;;;;;;15.34;45.44;103695.16;5073331;28;20028;-60
2023/12/16 02:25:47;;;;;;;8.10;1.88;;;;;;;15.34;45.32;103697.88;5073149;28;20030;-60
2023/12/16 02:28:13;;;;;;;7.93;2.10;;;;;;;15.31;46.02;103687.25;5074454;28;20035;-60
2023/12/16 02:30:38;;;;;;;6.78;2.22;;;;;;;15.33;46.38;103702.41;5073279;28;20044;-62
2023/12/16 02:33:04;;;;;;;7.97;1.90;;;;;;;15.30;45.79;103697.16;5072330;28;20056;-63
2023/12/16 02:35:29;;;;;;;7.53;2.38;;;;;;;15.30;45.76;103702.56;5074295;28;20025;-63
2023/12/16 02:37:55;;;;;;;12.50;3.05;;;;;;;15.27;46.39;103691.94;5072759;28;20402;-62
2023/12/16 02:40:21;;;;;;;4.88;1.90;;;;;;;15.28;45.34;103698.22;5072874;28;20097;-63
2023/12/16 02:42:46;;;;;;;10.68;2.58;;;;;;;15.28;46.10;103695.53;5074045;28;20025;-62
2023/12/16 02:45:11;;;;;;;3.90;2.05;;;;;;;15.19;46.04;103683.41;5072900;28;20048;-62
2023/12/16 02:47:37;;;;;;;7.57;2.00;;;;;;;15.26;46.53;103695.63;5055969;28;20020;-62
2023/12/16 02:50:03;;;;;;;4.88;2.30;;;;;;;15.25;46.46;103695.69;5072869;28;20472;-62
2023/12/16 02:52:30;;;;;;;8.38;2.42;;;;;;;15.28;46.21;103698.22;5072745;27;20027;-62
2023/12/16 02:54:55;;;;;;;13.65;2.40;;;;;;;15.28;46.19;103696.41;5073679;28;20388;-63
2023/12/16 02:57:21;;;;;;;7.68;2.15;;;;;;;15.30;46.01;103691.78;5072277;28;20023;-62
2023/12/16 02:59:49;;;;;;;10.77;2.38;;;;;;;15.28;45.40;103687.41;5072609;28;20104;-62
2023/12/16 03:02:14;;;;;;;10.77;1.95;;;;;;;15.25;45.57;103688.47;5072597;27;20043;-62
2023/12/16 03:04:40;;;;;;;9.90;2.20;;;;;;;15.24;45.64;103692.16;5072447;28;20052;-62
2023/12/16 03:07:05;;;;;;;5.72;2.03;;;;;;;15.21;45.31;103694.16;5072450;28;20047;-63
2023/12/16 03:09:30;;;;;;;6.75;2.20;;;;;;;15.22;46.21;103696.75;5055678;28;20483;-62
2023/12/16 03:11:56;;;;;;;4.25;2.15;;;;;;;15.22;45.74;103694.06;5073614;27;20029;-62
2023/12/16 03:14:21;;;;;;;12.18;2.72;;;;;;;15.22;44.78;103699.44;5072196;28;20028;-62
2023/12/16 03:16:47;;;;;;;6.57;2.10;;;;;;;15.22;44.92;103693.19;5072204;28;20070;-63
2023/12/16 03:19:12;;;;;;;7.05;2.42;;;;;;;15.23;45.98;103701.22;5073322;28;20107;-62
2023/12/16 03:21:38;;;;;;;6.18;1.92;;;;;;;15.23;44.94;103694.94;5054357;28;20399;-62
2023/12/16 03:24:05;;;;;;;8.57;1.92;;;;;;;15.26;45.35;103701.03;5073695;28;20028;-62
2023/12/16 03:26:30;;;;;;;4.00;2.00;;;;;;;15.27;46.15;103702.75;5072193;28;20491;-62
2023/12/16 03:28:55;;;;;;;9.65;2.53;;;;;;;15.28;45.89;103693.69;5072026;28;20093;-62
2023/12/16 03:31:21;;;;;;;8.70;2.65;;;;;;;15.27;46.25;103691.94;5073621;28;20476;-63
2023/12/16 03:33:47;;;;;;;10.90;3.13;;;;;;;15.26;45.22;103695.63;5072386;28;20021;-61
2023/12/16 03:36:12;;;;;;;11.77;2.58;;;;;;;15.22;45.44;103688.66;5072656;28;20025;-62
2023/12/16 03:38:41;;;;;;;9.68;2.45;;;;;;;15.23;45.91;103694.94;5074511;28;20110;-62
2023/12/16 03:41:06;;;;;;;6.22;2.53;;;;;;;15.21;45.40;103697.72;5074336;27;20047;-59
2023/12/16 03:43:31;;;;;;;7.93;2.60;;;;;;;15.19;45.33;103696.94;5057909;28;20100;-60
2023/12/16 03:45:57;;;;;;;6.45;2.13;;;;;;;15.18;45.82;103697.91;5078094;28;20043;-60
2023/12/16 03:48:22;;;;;;;9.32;2.25;;;;;;;15.18;44.94;103703.31;5077430;28;20025;-61
2023/12/16 03:50:47;;;;;;;9.85;2.33;;;;;;;15.16;45.67;103700.69;5075887;28;20089;-60
2023/12/16 03:53:13;;;;;;;11.13;3.05;;;;;;;15.14;45.40;103693.63;5072407;28;20036;-60
2023/12/16 03:55:38;;;;;;;10.95;2.50;;;;;;;15.14;45.73;103686.41;5073231;28;20041;-60
2023/12/16 03:58:03;;;;;;;11.68;2.97;;;;;;;15.18;46.00;103687.09;5071633;28;20137;-60
2023/12/16 04:00:29;;;;;;;13.60;2.72;;;;;;;15.20;45.69;103679.78;5072105;28;20609;-60
2023/12/16 04:02:55;;;;;;;12.25;4.30;;;;;;;15.21;46.45;103691.44;5072879;28;20090;-60
2023/12/16 04:05:21;;;;;;;6.05;2.70;;;;;;;15.20;45.92;103690.56;5073501;28;20025;-58
2023/12/16 04:07:46;;;;;;;8.77;3.08;;;;;;;15.18;45.72;103681.72;5074002;27;20400;-58
2023/12/16 04:10:11;;;;;;;8.18;2.53;;;;;;;15.22;45.32;103680.53;5055796;28;20112;-58
2023/12/16 04:12:37;;;;;;;14.25;2.88;;;;;;;15.23;46.09;103684.13;5073517;28;20477;-58
2023/12/16 04:15:02;;;;;;;13.07;2.97;;;;;;;15.21;45.84;103686.06;5072380;28;20032;-58
2023/12/16 04:17:28;;;;;;;10.45;3.50;;;;;;;15.20;46.43;103690.56;5073405;28;20059;-58
2023/12/16 04:19:54;;;;;;;10.52;2.80;;;;;;;15.16;45.78;103683.59;5073746;28;20392;-58
2023/12/16 04:22:20;;;;;;;14.40;2.72;;;;;;;15.16;45.56;103689.00;5073480;28;20097;-58
2023/12/16 04:24:47;;;;;;;9.93;2.75;;;;;;;15.14;45.26;103681.00;5071583;28;20032;-58
2023/12/16 04:27:12;;;;;;;23.98;4.13;;;;;;;15.15;46.02;103689.97;5054770;28;20032;-58
2023/12/16 04:29:38;;;;;;;12.43;2.50;;;;;;;15.16;44.85;103689.00;5072164;28;20490;-58
2023/12/16 04:32:03;;;;;;;5.85;2.30;;;;;;;15.18;45.36;103686.22;5071432;28;20032;-58
2023/12/16 04:34:29;;;;;;;5.50;3.25;;;;;;;15.19;46.21;103690.69;5071350;28;20032;-58
2023/12/16 04:36:54;;;;;;;9.85;2.22;;;;;;;15.20;45.52;103687.00;5072536;28;20033;-58
2023/12/16 04:39:20;;;;;;;11.50;2.63;;;;;;;15.21;45.12;103689.63;5072598;28;20037;-58
2023/12/16 04:41:45;;;;;;;12.57;4.07;;;;;;;15.21;45.84;103692.34;5071292;28;20103;-59
2023/12/16 04:44:10;;;;;;;7.43;2.28;;;;;;;15.16;45.42;103683.59;5071029;28;20422;-59
2023/12/16 04:46:36;;;;;;;10.30;2.25;;;;;;;15.18;46.49;103692.50;5054399;28;20021;-60
2023/12/16 04:49:02;;;;;;;9.82;2.25;;;;;;;15.16;46.65;103687.19;5071178;28;20024;-59
2023/12/16 04:51:28;;;;;;;9.13;2.40;;;;;;;15.16;46.26;103694.41;5072402;28;20484;-60
2023/12/16 04:53:53;;;;;;;8.25;2.63;;;;;;;15.15;45.35;103693.56;5072413;28;20046;-60
2023/12/16 04:56:19;;;;;;;9.43;2.85;;;;;;;15.14;46.11;103697.19;5057030;28;20531;-60
2023/12/16 04:58:44;;;;;;;14.60;2.40;;;;;;;15.16;45.17;103699.81;5075177;28;20039;-59
2023/12/16 05:01:10;;;;;;;6.28;2.20;;;;;;;15.17;45.68;103698.84;5076264;28;20403;-60
2023/12/16 05:03:35;;;;;;;8.45;2.00;;;;;;;15.14;45.47;103701.72;5058022;28;20029;-60
2023/12/16 05:06:01;;;;;;;8.80;2.22;;;;;;;15.12;45.46;103688.34;5074987;28;20032;-60
2023/12/16 05:08:26;;;;;;;14.20;2.42;;;;;;;15.14;45.34;103691.81;5076005;28;20028;-59
2023/12/16 05:10:52;;;;;;;11.45;2.47;;;;;;;15.13;45.75;103691.91;5074784;28;20395;-60
2023/12/16 05:13:17;;;;;;;7.15;2.88;;;;;;;15.16;45.46;103694.41;5074792;28;20059;-60
2023/12/16 05:15:43;;;;;;;8.38;2.67;;;;;;;15.14;46.12;103696.31;5073548;28;20029;-60
2023/12/16 05:18:08;;;;;;;8.60;2.95;;;;;;;15.15;45.75;103698.09;5075885;28;20032;-59
2023/12/16 05:20:34;;;;;;;12.43;2.67;;;;;;;15.15;46.01;103693.56;5074558;28;20041;-59
2023/12/16 05:23:00;;;;;;;11.25;2.45;;;;;;;15.21;46.48;103696.84;5074511;28;20492;-60
2023/12/16 05:25:29;;;;;;;11.88;3.20;;;;;;;15.20;45.55;103700.50;5074446;28;20028;-60
2023/12/16 05:27:55;;;;;;;8.52;2.17;;;;;;;15.23;46.09;103703.03;5057798;28;20043;-59
2023/12/16 05:30:21;;;;;;;19.75;2.78;;;;;;;15.22;45.28;103710.25;5074136;28;20442;-59
2023/12/16 05:32:47;;;;;;;11.00;2.88;;;;;;;15.22;46.30;103710.25;5075531;28;20028;-59
2023/12/16 05:35:12;;;;;;;10.55;2.63;;;;;;;15.23;45.11;103706.59;5057502;28;20119;-60
2023/12/16 05:37:37;;;;;;;13.23;2.28;;;;;;;15.24;45.00;103697.56;5074153;28;20399;-59
2023/12/16 05:40:03;;;;;;;16.13;3.22;;;;;;;15.23;46.63;103701.22;5040666;28;20029;-60
2023/12/16 05:42:29;;;;;;;10.68;2.55;;;;;;;15.20;45.80;103695.97;5075530;28;20024;-60
2023/12/16 05:44:54;;;;;;;10.85;2.42;;;;;;;15.22;45.41;103696.75;5075361;27;20085;-59
2023/12/16 05:47:20;;;;;;;8.77;2.60;;;;;;;15.23;46.11;103698.50;5075212;28;20028;-59
2023/12/16 05:49:45;;;;;;;15.90;3.30;;;;;;;15.22;45.09;103709.38;5057249;28;20036;-59
2023/12/16 05:52:11;;;;;;;9.05;2.47;;;;;;;15.21;46.10;103713.94;5073952;28;20056;-60
2023/12/16 05:54:36;;;;;;;13.70;2.28;;;;;;;15.21;46.01;103711.22;5073818;28;20553;-60
2023/12/16 05:57:02;;;;;;;10.32;2.40;;;;;;;15.23;45.53;103714.72;5074865;28;20473;-60
2023/12/16 05:59:28;;;;;;;10.05;2.00;;;;;;;15.22;46.21;103707.56;5073619;28;20033;-59
2023/12/16 06:01:53;;;;;;;7.50;2.28;;;;;;;15.24;44.99;103718.28;5073743;28;20078;-59
2023/12/16 06:04:19;;;;;;;10.13;2.60;;;;;;;15.21;45.64;103705.84;5073671;28;20025;-59
2023/12/16 06:06:44;;;;;;;6.68;1.73;;;;;;;15.24;46.15;103719.16;5056574;28;20055;-59
2023/12/16 06:09:09;;;;;;;9.48;2.53;;;;;;;15.22;46.19;103712.06;5073564;28;20085;-60
2023/12/16 06:11:35;;;;;;;10.25;2.08;;;;;;;15.20;45.03;103704.06;5073626;28;20078;-59
2023/12/16 06:14:00;;;;;;;11.13;2.20;;;;;;;15.19;45.21;103715.81;5074657;28;20033;-60
2023/12/16 06:16:25;;;;;;;8.80;2.33;;;;;;;15.16;45.60;103705.19;5074576;28;20407;-59
2023/12/16 06:18:51;;;;;;;14.00;2.60;;;;;;;15.14;45.96;103713.41;5075006;28;20086;-59
2023/12/16 06:21:16;;;;;;;9.32;2.40;;;;;;;15.12;46.57;103722.56;5074486;28;20544;-59
2023/12/16 06:23:42;;;;;;;9.30;2.67;;;;;;;15.08;46.08;103723.66;5073427;28;20028;-60
2023/12/16 06:26:08;;;;;;;8.52;2.20;;;;;;;15.05;45.09;103726.53;5056647;28;20458;-60
2023/12/16 06:28:33;;;;;;;8.77;3.83;;;;;;;15.02;46.16;103724.00;5073113;28;20032;-59
2023/12/16 06:30:58;;;;;;;5.13;1.90;;;;;;;14.97;45.15;103723.41;5073442;28;20074;-60
2023/12/16 06:33:24;;;;;;;5.40;1.88;;;;;;;14.92;45.86;103717.41;5073282;28;20033;-59
2023/12/16 06:35:50;;;;;;;8.95;2.20;;;;;;;14.88;45.10;103714.00;5075220;28;20044;-59
2023/12/16 06:38:16;;;;;;;8.02;2.53;;;;;;;14.81;46.24;103718.00;5074233;27;20033;-59
2023/12/16 06:40:41;;;;;;;7.20;2.05;;;;;;;14.80;45.59;103712.69;5072882;28;20039;-59
2023/12/16 06:43:07;;;;;;;11.70;2.63;;;;;;;14.78;46.58;103714.59;5072892;28;20035;-59
2023/12/16 06:45:33;;;;;;;10.23;2.67;;;;;;;14.75;46.10;103720.19;5074341;28;20024;-59
2023/12/16 06:47:58;;;;;;;11.85;3.42;;;;;;;14.71;45.72;103721.31;5074134;27;20423;-60
2023/12/16 06:50:24;;;;;;;15.48;2.25;;;;;;;14.66;46.11;103726.06;5074277;28;20047;-59
2023/12/16 06:52:49;;;;;;;5.10;1.85;;;;;;;14.61;46.13;103726.34;5072756;28;20462;-59
2023/12/16 06:55:15;;;;;;;9.48;2.08;;;;;;;14.61;45.91;103728.16;5073857;28;20052;-59
2023/12/16 06:57:40;;;;;;;9.18;2.95;;;;;;;14.57;45.42;103749.91;5072620;28;20431;-59
2023/12/16 07:00:06;;;;;;;6.65;2.75;;;;;;;14.54;45.97;103749.22;5073868;28;20115;-59
2023/12/16 07:02:32;;;;;;;5.35;1.95;;;;;;;14.53;46.42;103742.94;5072455;28;20029;-59
2023/12/16 07:04:57;;;;;;;6.68;1.77;;;;;;;14.54;45.66;103750.06;5073722;28;20029;-59
2023/12/16 07:07:25;;;;;;;10.98;1.95;;;;;;;14.54;46.39;103749.22;5073719;27;20029;-59
2023/12/16 07:09:50;;;;;;;13.13;2.88;;;;;;;14.52;46.38;103751.97;5072448;28;20036;-60
2023/12/16 07:12:15;;;;;;;6.63;2.25;;;;;;;14.51;45.50;103749.38;5072588;28;20024;-60
2023/12/16 07:14:42;;;;;;;8.70;2.10;;;;;;;14.47;45.55;103743.28;5072706;28;20155;-60
2023/12/16 07:17:07;;;;;;;10.88;2.70;;;;;;;14.47;45.40;103743.28;5073268;28;20040;-59
2023/12/16 07:19:34;;;;;;;14.25;2.35;;;;;;;14.44;45.27;103747.97;5038454;28;20029;-60
2023/12/16 07:21:59;;;;;;;7.68;2.25;;;;;;;14.40;45.72;103739.19;5072254;28;20055;-59
2023/12/16 07:24:25;;;;;;;11.65;1.67;;;;;;;14.35;45.84;103737.69;5073774;28;20064;-59
2023/12/16 07:26:50;;;;;;;7.85;1.90;;;;;;;14.32;46.66;103738.69;5073616;28;20028;-60
2023/12/16 07:29:16;;;;;;;5.20;1.75;;;;;;;14.31;46.74;103747.72;5074654;28;20113;-60
2023/12/16 07:31:48;;;;;;;9.35;1.50;;;;;;;14.31;45.23;103747.72;5078634;28;20036;-59
2023/12/16 07:34:14;;;;;;;7.93;1.90;;;;;;;14.31;46.62;103745.03;5072454;28;20441;-59
2023/12/16 07:36:40;;;;;;;12.88;1.92;;;;;;;14.30;46.35;103740.56;5073082;28;20119;-59
2023/12/16 07:39:06;;;;;;;7.03;2.25;;;;;;;14.27;46.04;103719.16;5074837;28;20024;-60
2023/12/16 07:41:31;;;;;;;5.80;1.63;;;;;;;14.30;46.77;103735.19;5074821;28;20580;-61
2023/12/16 07:43:57;;;;;;;8.95;2.50;;;;;;;14.30;46.11;103726.22;5074520;28;20029;-59
2023/12/16 07:46:24;;;;;;;10.80;1.80;;;;;;;14.31;45.73;103728.84;5076043;28;20028;-60
2023/12/16 07:48:49;;;;;;;7.78;1.60;;;;;;;14.31;45.87;103734.25;5075417;28;20540;-60
2023/12/16 07:51:16;;;;;;;6.78;1.83;;;;;;;14.30;46.70;103740.56;5073453;28;20047;-59
2023/12/16 07:53:43;;;;;;;8.18;2.22;;;;;;;14.26;45.60;103739.00;5072303;28;20033;-59
2023/12/16 07:56:26;;;;;;;13.68;2.10;;;;;;;14.28;46.63;103741.63;5071628;28;20045;-59
2023/12/16 07:58:51;;;;;;;11.95;2.03;;;;;;;14.30;46.38;103754.06;5072963;28;20028;-59
2023/12/16 08:01:18;;;;;;;3.95;1.38;;;;;;;14.32;46.82;103749.47;5072977;28;20111;-59
2023/12/16 08:03:46;;;;;;;6.28;1.70;;;;;;;14.34;46.98;103744.91;5072404;28;20029;-59
2023/12/16 08:06:14;;;;;;;4.43;1.52;;;;;;;14.35;46.18;103749.31;5071579;28;20033;-59
2023/12/16 08:08:41;;;;;;;8.48;1.55;;;;;;;14.35;46.37;103743.09;5071426;28;20040;-59
2023/12/16 08:11:07;;;;;;;6.22;1.60;;;;;;;14.38;45.41;103745.59;5071567;28;20074;-59
2023/12/16 08:13:33;;;;;;;4.78;1.60;;;;;;;14.44;46.50;103754.22;5071632;28;20028;-59
2023/12/16 08:15:59;;;;;;;8.50;1.50;;;;;;;14.46;46.32;103757.72;5071343;28;20039;-59
2023/12/16 08:18:26;;;;;;;5.70;1.50;;;;;;;14.50;46.83;103764.69;5073307;28;20028;-59
2023/12/16 08:20:51;;;;;;;8.45;2.08;;;;;;;14.50;46.18;103758.41;5072685;28;20032;-59
2023/12/16 08:23:17;;;;;;;7.53;2.03;;;;;;;14.56;45.29;103761.66;5072768;28;20032;-60
2023/12/16 08:25:43;;;;;;;7.97;1.83;;;;;;;14.59;45.37;103757.94;5071554;28;20036;-60
2023/12/16 08:28:08;;;;;;;8.68;2.10;;;;;;;14.66;46.69;103763.84;5072826;28;20438;-59
2023/12/16 08:30:34;;;;;;;9.35;1.90;;;;;;;14.69;46.63;103767.25;5058044;28;20025;-59
2023/12/16 08:32:59;;;;;;;11.18;2.08;;;;;;;14.69;45.00;103764.56;5077013;28;20050;-60
2023/12/16 08:35:25;;;;;;;8.95;2.10;;;;;;;14.73;46.09;103770.66;5083083;28;20055;-59
2023/12/16 08:37:50;;;;;;;11.88;1.50;;;;;;;14.74;45.18;103773.25;5075224;28;20083;-59
2023/12/16 08:40:16;;;;;;;12.23;2.03;;;;;;;14.82;45.48;103780.97;5076872;28;20078;-59
2023/12/16 08:42:42;;;;;;;4.50;1.30;;;;;;;14.86;45.03;103769.03;5075358;28;20040;-59
2023/12/16 08:45:09;;;;;;;6.20;1.67;;;;;;;14.95;44.97;103784.72;5076636;28;20504;-59
2023/12/16 08:47:34;;;;;;;6.47;1.75;;;;;;;14.99;46.19;103784.44;5076372;28;20119;-60
2023/12/16 08:50:00;;;;;;;9.25;1.80;;;;;;;15.01;45.94;103781.69;5076429;28;20111;-60
2023/12/16 08:52:27;;;;;;;6.75;2.40;;;;;;;15.04;46.09;103786.91;5076542;28;20043;-59
2023/12/16 08:54:52;;;;;;;8.68;1.35;;;;;;;15.08;46.06;103805.53;5076173;28;20469;-60
2023/12/16 08:57:18;;;;;;;7.05;1.70;;;;;;;15.12;44.94;103795.47;5058235;28;20033;-60
2023/12/16 08:59:43;;;;;;;5.18;2.22;;;;;;;15.13;45.14;103791.81;5075136;28;20099;-60
2023/12/16 09:02:09;;;;;;;12.95;2.97;;;;;;;15.14;45.34;103794.41;5075640;28;20032;-63
2023/12/16 09:04:35;;;;;;;8.90;1.73;;;;;;;15.20;46.00;103801.28;5076491;28;20017;-60
2023/12/16 09:07:00;;;;;;;9.25;1.42;;;;;;;15.22;45.36;103796.66;5076022;28;20035;-61
2023/12/16 09:09:26;;;;;;;8.38;2.33;;;;;;;15.24;45.54;103788.50;5075081;27;20021;-60
2023/12/16 09:11:52;;;;;;;11.02;2.22;;;;;;;15.34;46.06;103800.50;5074934;28;20024;-60
2023/12/16 09:14:17;;;;;;;10.02;1.77;;;;;;;15.41;45.76;103813.56;5075971;28;20411;-60
2023/12/16 09:16:43;;;;;;;6.43;1.50;;;;;;;15.46;44.83;103806.13;5041562;28;20024;-59
2023/12/16 09:19:08;;;;;;;6.50;1.63;;;;;;;15.52;45.18;103800.34;5074768;28;20115;-59
2023/12/16 09:21:34;;;;;;;5.53;1.40;;;;;;;15.53;45.37;103799.41;5057912;28;20027;-60
2023/12/16 09:23:59;;;;;;;3.05;1.23;;;;;;;15.57;46.19;103803.69;5076177;28;20468;-60
2023/12/16 09:26:25;;;;;;;6.07;1.35;;;;;;;15.63;45.99;103807.88;5074518;28;20459;-59
2023/12/16 09:28:51;;;;;;;8.63;2.05;;;;;;;15.68;45.11;103801.22;5075900;27;20504;-60
2023/12/16 09:31:18;;;;;;;7.32;1.60;;;;;;;15.74;46.19;103798.13;5074675;28;20396;-60
2023/12/16 09:33:43;;;;;;;14.77;1.85;;;;;;;15.83;45.23;103804.84;5074685;28;20044;-60
2023/12/16 09:36:13;;;;;;;12.38;2.22;;;;;;;15.88;45.77;103810.00;5057852;28;20049;-60
2023/12/16 09:38:40;;;;;;;12.10;2.28;;;;;;;15.94;45.36;103810.47;5074541;28;20016;-60
2023/12/16 09:41:38;;;;;;;7.63;2.05;;;;;;;16.00;44.50;103811.94;5074849;28;20100;-59
2023/12/16 09:44:04;;;;;;;2.83;0.98;;;;;;;16.04;45.53;103818.94;5075400;28;20093;-59
2023/12/16 09:46:31;;;;;;;11.70;1.92;;;;;;;16.11;45.28;103817.59;5073863;28;20552;-58
2023/12/16 09:48:57;;;;;;;8.43;1.30;;;;;;;16.14;46.27;103817.41;5075328;28;20028;-58
2023/12/16 09:51:23;;;;;;;5.15;1.55;;;;;;;16.23;44.77;103806.91;5057375;28;20139;-58
2023/12/16 09:53:51;;;;;;;11.07;1.60;;;;;;;16.30;44.37;103802.03;5074153;28;20040;-58
2023/12/16 09:56:17;;;;;;;6.43;1.95;;;;;;;16.38;46.08;103804.25;5073888;28;20067;-58
2023/12/16 09:58:45;;;;;;;11.25;2.55;;;;;;;16.45;45.18;103808.31;5073781;28;20489;-59
2023/12/16 10:01:11;;;;;;;7.78;1.67;;;;;;;16.52;44.73;103806.97;5075237;27;20064;-59
2023/12/16 10:03:38;;;;;;;10.02;1.63;;;;;;;16.63;45.26;103802.69;5075437;28;20029;-59
2023/12/16 10:06:05;;;;;;;9.60;1.92;;;;;;;16.77;44.10;103805.41;5074087;28;20035;-58
2023/12/16 10:08:30;;;;;;;7.28;2.30;;;;;;;16.86;45.03;103804.78;5057028;28;20071;-58
2023/12/16 10:10:59;;;;;;;6.90;1.70;;;;;;;17.03;44.52;103794.75;5075023;28;20053;-58
2023/12/16 10:13:30;;;;;;;6.40;1.65;;;;;;;17.12;44.90;103796.84;5073639;28;20033;-59
2023/12/16 10:15:56;;;;;;;8.60;2.40;;;;;;;17.32;44.39;103799.13;5074929;28;20081;-58
2023/12/16 10:18:21;;;;;;;12.82;2.40;;;;;;;17.52;44.12;103793.28;5056631;28;20128;-59
2023/12/16 10:20:48;;;;;;;7.22;2.22;;;;;;;17.75;43.47;103779.09;5074055;28;20109;-58
2023/12/16 10:23:13;;;;;;;8.88;1.23;;;;;;;17.86;44.02;103775.66;5073898;28;20032;-59
2023/12/16 10:25:40;;;;;;;10.57;2.75;;;;;;;18.02;43.66;103782.63;5072510;28;20033;-58
2023/12/16 10:28:06;;;;;;;9.65;1.73;;;;;;;18.36;43.59;103774.84;5073578;28;20041;-59
2023/12/16 10:30:31;;;;;;;4.90;2.03;;;;;;;18.69;42.88;103777.94;5073387;28;20043;-59
2023/12/16 10:32:57;;;;;;;9.10;1.88;;;;;;;19.04;42.87;103772.63;5072961;28;20062;-59
2023/12/16 10:35:24;;;;;;;10.70;3.72;;;;;;;19.23;43.22;103781.22;5074209;28;20037;-59
2023/12/16 10:37:50;;;;;;;7.30;2.30;;;;;;;19.24;43.08;103779.34;5056128;28;20377;-60
2023/12/16 10:40:17;;;;;;;6.35;1.60;;;;;;;19.56;42.63;103772.41;5056397;28;20032;-60
2023/12/16 10:42:43;;;;;;;5.45;1.63;;;;;;;19.84;42.96;103774.78;5073253;28;20048;-60
2023/12/16 10:45:10;;;;;;;7.90;1.60;;;;;;;20.06;41.93;103777.56;5074534;28;20075;-60
2023/12/16 10:47:37;;;;;;;9.50;2.38;;;;;;;20.23;42.86;103768.97;5073187;28;20107;-60
2023/12/16 10:50:03;;;;;;;9.52;2.20;;;;;;;20.42;41.54;103770.25;5072091;28;20105;-59
2023/12/16 10:52:34;;;;;;;10.80;1.67;;;;;;;20.44;41.74;103779.16;5074555;28;20041;-60
2023/12/16 10:55:02;;;;;;;12.90;2.00;;;;;;;20.30;42.60;103772.94;5072901;28;20037;-60
2023/12/16 10:57:32;;;;;;;12.35;1.42;;;;;;;20.25;42.73;103775.19;5074041;28;20102;-60
2023/12/16 11:00:21;;;;;;;5.93;2.17;;;;;;;20.06;41.87;103782.13;5072921;28;20445;-60
2023/12/16 11:03:09;;;;;;;5.88;2.33;;;;;;;19.87;42.81;103766.38;5073667;28;20029;-60
2023/12/16 11:05:42;;;;;;;11.63;2.25;;;;;;;19.73;42.36;103777.44;5075628;28;20058;-59
2023/12/16 11:08:08;;;;;;;;;;;;;;;19.62;42.95;103780.09;5075577;28;20460;-61
2023/12/16 11:10:33;;;;;;;6.97;1.77;;;;;;;19.51;42.48;103771.88;5074521;28;19926;-60
2023/12/16 11:13:03;;;;;;;8.82;2.88;;;;;;;19.42;42.80;103778.00;5073717;27;20059;-59
2023/12/16 11:15:30;;;;;;;9.63;3.08;;;;;;;19.28;42.61;103772.69;5072825;28;20035;-59